sensor_id;sensor_type;location;lat;lon;timestamp;P1;durP1;ratioP1;P2;durP2;ratioP2
61471;SDS011;47337;54.068;12.114;2023-07-22T00:02:24;6.47;;;4.40;;
61471;SDS011;47337;54.068;12.114;2023-07-22T00:04:49;5.50;;;4.80;;
61471;SDS011;47337;54.068;12.114;2023-07-22T00:07:15;7.70;;;5.10;;
61471;SDS011;47337;54.068;12.114;2023-07-22T00:09:43;6.93;;;5.05;;
61471;SDS011;47337;54.068;12.114;2023-07-22T00:12:11;5.18;;;3.97;;
61471;SDS011;47337;54.068;12.114;2023-07-22T00:14:39;4.63;;;4.05;;
61471;SDS011;47337;54.068;12.114;2023-07-22T00:17:05;5.38;;;3.17;;
61471;SDS011;47337;54.068;12.114;2023-07-22T00:19:31;4.78;;;2.85;;
61471;SDS011;47337;54.068;12.114;2023-07-22T00:21:59;3.03;;;2.72;;
61471;SDS011;47337;54.068;12.114;2023-07-22T00:24:27;3.72;;;2.30;;
61471;SDS011;47337;54.068;12.114;2023-07-22T00:26:52;2.35;;;2.15;;
61471;SDS011;47337;54.068;12.114;2023-07-22T00:29:18;4.10;;;2.50;;
61471;SDS011;47337;54.068;12.114;2023-07-22T00:31:43;2.50;;;2.25;;
61471;SDS011;47337;54.068;12.114;2023-07-22T00:34:09;4.10;;;2.55;;
61471;SDS011;47337;54.068;12.114;2023-07-22T00:36:37;4.10;;;3.03;;
61471;SDS011;47337;54.068;12.114;2023-07-22T00:39:03;4.05;;;2.65;;
61471;SDS011;47337;54.068;12.114;2023-07-22T00:41:28;5.45;;;2.90;;
61471;SDS011;47337;54.068;12.114;2023-07-22T00:43:56;4.75;;;3.20;;
61471;SDS011;47337;54.068;12.114;2023-07-22T00:46:21;4.55;;;3.58;;
61471;SDS011;47337;54.068;12.114;2023-07-22T00:48:49;4.72;;;3.72;;
61471;SDS011;47337;54.068;12.114;2023-07-22T00:51:15;4.75;;;4.07;;
61471;SDS011;47337;54.068;12.114;2023-07-22T00:53:41;5.28;;;4.10;;
61471;SDS011;47337;54.068;12.114;2023-07-22T00:56:06;6.25;;;4.53;;
61471;SDS011;47337;54.068;12.114;2023-07-22T00:58:32;6.00;;;4.30;;
61471;SDS011;47337;54.068;12.114;2023-07-22T01:01:00;9.20;;;4.68;;
61471;SDS011;47337;54.068;12.114;2023-07-22T01:03:26;4.90;;;4.40;;
61471;SDS011;47337;54.068;12.114;2023-07-22T01:05:51;5.45;;;4.43;;
61471;SDS011;47337;54.068;12.114;2023-07-22T01:08:19;7.82;;;5.30;;
61471;SDS011;47337;54.068;12.114;2023-07-22T01:10:45;7.63;;;4.97;;
61471;SDS011;47337;54.068;12.114;2023-07-22T01:13:15;7.32;;;5.32;;
61471;SDS011;47337;54.068;12.114;2023-07-22T01:15:40;5.63;;;4.40;;
61471;SDS011;47337;54.068;12.114;2023-07-22T01:18:06;5.07;;;4.45;;
61471;SDS011;47337;54.068;12.114;2023-07-22T01:20:32;7.38;;;4.95;;
61471;SDS011;47337;54.068;12.114;2023-07-22T01:23:01;9.13;;;4.97;;
61471;SDS011;47337;54.068;12.114;2023-07-22T01:25:27;6.35;;;5.18;;
61471;SDS011;47337;54.068;12.114;2023-07-22T01:27:53;6.38;;;4.70;;
61471;SDS011;47337;54.068;12.114;2023-07-22T01:30:21;6.45;;;5.47;;
61471;SDS011;47337;54.068;12.114;2023-07-22T01:32:46;7.53;;;5.15;;
61471;SDS011;47337;54.068;12.114;2023-07-22T01:35:12;9.48;;;5.60;;
61471;SDS011;47337;54.068;12.114;2023-07-22T01:37:38;8.65;;;5.80;;
61471;SDS011;47337;54.068;12.114;2023-07-22T01:40:03;8.95;;;6.38;;
61471;SDS011;47337;54.068;12.114;2023-07-22T01:42:42;9.07;;;6.15;;
61471;SDS011;47337;54.068;12.114;2023-07-22T01:45:08;8.55;;;6.32;;
61471;SDS011;47337;54.068;12.114;2023-07-22T01:47:34;9.25;;;5.88;;
61471;SDS011;47337;54.068;12.114;2023-07-22T01:50:03;9.35;;;6.43;;
61471;SDS011;47337;54.068;12.114;2023-07-22T01:52:34;9.52;;;6.28;;
61471;SDS011;47337;54.068;12.114;2023-07-22T01:55:00;9.60;;;6.30;;
61471;SDS011;47337;54.068;12.114;2023-07-22T01:57:26;10.30;;;6.88;;
61471;SDS011;47337;54.068;12.114;2023-07-22T01:59:51;11.20;;;7.35;;
61471;SDS011;47337;54.068;12.114;2023-07-22T02:02:19;11.38;;;7.53;;
61471;SDS011;47337;54.068;12.114;2023-07-22T02:04:45;17.23;;;7.70;;
61471;SDS011;47337;54.068;12.114;2023-07-22T02:07:13;12.30;;;7.45;;
61471;SDS011;47337;54.068;12.114;2023-07-22T02:09:38;14.48;;;7.88;;
61471;SDS011;47337;54.068;12.114;2023-07-22T02:12:04;17.08;;;8.13;;
61471;SDS011;47337;54.068;12.114;2023-07-22T02:14:33;14.18;;;8.18;;
61471;SDS011;47337;54.068;12.114;2023-07-22T02:16:58;18.27;;;9.25;;
61471;SDS011;47337;54.068;12.114;2023-07-22T02:19:26;17.48;;;9.20;;
61471;SDS011;47337;54.068;12.114;2023-07-22T02:21:54;18.08;;;9.70;;
61471;SDS011;47337;54.068;12.114;2023-07-22T02:24:22;17.63;;;9.95;;
61471;SDS011;47337;54.068;12.114;2023-07-22T02:26:47;16.58;;;9.88;;
61471;SDS011;47337;54.068;12.114;2023-07-22T02:29:12;19.70;;;10.73;;
61471;SDS011;47337;54.068;12.114;2023-07-22T02:31:38;21.02;;;11.63;;
61471;SDS011;47337;54.068;12.114;2023-07-22T02:34:04;24.17;;;11.48;;
61471;SDS011;47337;54.068;12.114;2023-07-22T02:36:30;22.77;;;12.05;;
61471;SDS011;47337;54.068;12.114;2023-07-22T02:38:56;23.13;;;12.02;;
61471;SDS011;47337;54.068;12.114;2023-07-22T02:41:21;26.52;;;12.93;;
61471;SDS011;47337;54.068;12.114;2023-07-22T02:43:49;24.95;;;13.73;;
61471;SDS011;47337;54.068;12.114;2023-07-22T02:46:14;25.23;;;13.63;;
61471;SDS011;47337;54.068;12.114;2023-07-22T02:48:40;23.67;;;13.18;;
61471;SDS011;47337;54.068;12.114;2023-07-22T02:51:09;22.45;;;12.07;;
61471;SDS011;47337;54.068;12.114;2023-07-22T02:53:36;23.17;;;12.88;;
61471;SDS011;47337;54.068;12.114;2023-07-22T02:56:06;25.70;;;12.43;;
61471;SDS011;47337;54.068;12.114;2023-07-22T02:58:36;21.88;;;12.68;;
61471;SDS011;47337;54.068;12.114;2023-07-22T03:01:02;31.15;;;12.73;;
61471;SDS011;47337;54.068;12.114;2023-07-22T03:03:29;21.90;;;11.85;;
61471;SDS011;47337;54.068;12.114;2023-07-22T03:05:58;20.95;;;11.98;;
61471;SDS011;47337;54.068;12.114;2023-07-22T03:08:24;23.48;;;12.80;;
61471;SDS011;47337;54.068;12.114;2023-07-22T03:10:51;19.40;;;11.65;;
61471;SDS011;47337;54.068;12.114;2023-07-22T03:13:17;23.65;;;12.40;;
61471;SDS011;47337;54.068;12.114;2023-07-22T03:15:42;21.00;;;11.98;;
61471;SDS011;47337;54.068;12.114;2023-07-22T03:18:08;21.35;;;12.02;;
61471;SDS011;47337;54.068;12.114;2023-07-22T03:20:36;20.13;;;11.80;;
61471;SDS011;47337;54.068;12.114;2023-07-22T03:23:03;23.92;;;11.85;;
61471;SDS011;47337;54.068;12.114;2023-07-22T03:25:32;22.27;;;12.18;;
61471;SDS011;47337;54.068;12.114;2023-07-22T03:28:05;20.65;;;12.70;;
61471;SDS011;47337;54.068;12.114;2023-07-22T03:30:31;26.02;;;12.82;;
61471;SDS011;47337;54.068;12.114;2023-07-22T03:32:59;26.85;;;13.32;;
61471;SDS011;47337;54.068;12.114;2023-07-22T03:35:25;24.73;;;12.55;;
61471;SDS011;47337;54.068;12.114;2023-07-22T03:37:54;24.33;;;13.93;;
61471;SDS011;47337;54.068;12.114;2023-07-22T03:40:20;27.10;;;13.80;;
61471;SDS011;47337;54.068;12.114;2023-07-22T03:42:52;27.70;;;13.65;;
61471;SDS011;47337;54.068;12.114;2023-07-22T03:45:21;31.13;;;15.52;;
61471;SDS011;47337;54.068;12.114;2023-07-22T03:47:55;27.00;;;14.80;;
61471;SDS011;47337;54.068;12.114;2023-07-22T03:50:23;27.95;;;15.40;;
61471;SDS011;47337;54.068;12.114;2023-07-22T03:52:48;26.13;;;14.10;;
61471;SDS011;47337;54.068;12.114;2023-07-22T03:55:14;38.60;;;15.73;;
61471;SDS011;47337;54.068;12.114;2023-07-22T03:57:39;31.25;;;16.10;;
61471;SDS011;47337;54.068;12.114;2023-07-22T04:00:05;29.42;;;14.60;;
61471;SDS011;47337;54.068;12.114;2023-07-22T04:02:37;27.67;;;14.88;;
61471;SDS011;47337;54.068;12.114;2023-07-22T04:05:03;26.98;;;13.68;;
61471;SDS011;47337;54.068;12.114;2023-07-22T04:07:28;25.73;;;14.85;;
61471;SDS011;47337;54.068;12.114;2023-07-22T04:09:54;28.63;;;14.35;;
61471;SDS011;47337;54.068;12.114;2023-07-22T04:12:22;25.25;;;13.80;;
61471;SDS011;47337;54.068;12.114;2023-07-22T04:14:48;31.83;;;13.88;;
61471;SDS011;47337;54.068;12.114;2023-07-22T04:17:15;27.73;;;13.77;;
61471;SDS011;47337;54.068;12.114;2023-07-22T04:19:41;24.40;;;13.43;;
61471;SDS011;47337;54.068;12.114;2023-07-22T04:22:08;22.63;;;13.50;;
61471;SDS011;47337;54.068;12.114;2023-07-22T04:24:33;24.52;;;12.05;;
61471;SDS011;47337;54.068;12.114;2023-07-22T04:27:01;13.23;;;9.75;;
61471;SDS011;47337;54.068;12.114;2023-07-22T04:29:27;12.88;;;8.02;;
61471;SDS011;47337;54.068;12.114;2023-07-22T04:31:56;11.50;;;7.18;;
61471;SDS011;47337;54.068;12.114;2023-07-22T04:34:23;11.05;;;6.82;;
61471;SDS011;47337;54.068;12.114;2023-07-22T04:36:50;10.10;;;6.57;;
61471;SDS011;47337;54.068;12.114;2023-07-22T04:39:16;10.48;;;6.10;;
61471;SDS011;47337;54.068;12.114;2023-07-22T04:41:42;9.18;;;6.05;;
61471;SDS011;47337;54.068;12.114;2023-07-22T04:44:08;8.80;;;6.15;;
61471;SDS011;47337;54.068;12.114;2023-07-22T04:46:33;8.85;;;5.28;;
61471;SDS011;47337;54.068;12.114;2023-07-22T04:48:58;10.15;;;6.05;;
61471;SDS011;47337;54.068;12.114;2023-07-22T04:51:24;8.43;;;5.18;;
61471;SDS011;47337;54.068;12.114;2023-07-22T04:53:49;9.88;;;5.45;;
61471;SDS011;47337;54.068;12.114;2023-07-22T04:56:14;12.25;;;5.28;;
61471;SDS011;47337;54.068;12.114;2023-07-22T04:58:41;12.20;;;5.35;;
61471;SDS011;47337;54.068;12.114;2023-07-22T05:01:06;8.02;;;5.55;;
61471;SDS011;47337;54.068;12.114;2023-07-22T05:03:31;9.43;;;5.60;;
61471;SDS011;47337;54.068;12.114;2023-07-22T05:05:57;9.65;;;5.53;;
61471;SDS011;47337;54.068;12.114;2023-07-22T05:08:23;8.85;;;5.90;;
61471;SDS011;47337;54.068;12.114;2023-07-22T05:10:49;10.35;;;5.05;;
61471;SDS011;47337;54.068;12.114;2023-07-22T05:13:14;9.05;;;4.75;;
61471;SDS011;47337;54.068;12.114;2023-07-22T05:15:42;10.20;;;5.25;;
61471;SDS011;47337;54.068;12.114;2023-07-22T05:18:07;9.45;;;4.50;;
61471;SDS011;47337;54.068;12.114;2023-07-22T05:20:33;6.40;;;4.07;;
61471;SDS011;47337;54.068;12.114;2023-07-22T05:22:58;12.82;;;4.80;;
61471;SDS011;47337;54.068;12.114;2023-07-22T05:25:24;7.80;;;4.68;;
61471;SDS011;47337;54.068;12.114;2023-07-22T05:27:49;8.35;;;4.95;;
61471;SDS011;47337;54.068;12.114;2023-07-22T05:30:17;10.10;;;5.22;;
61471;SDS011;47337;54.068;12.114;2023-07-22T05:32:42;10.68;;;4.95;;
61471;SDS011;47337;54.068;12.114;2023-07-22T05:35:08;8.80;;;5.05;;
61471;SDS011;47337;54.068;12.114;2023-07-22T05:37:34;12.43;;;5.07;;
61471;SDS011;47337;54.068;12.114;2023-07-22T05:39:59;9.30;;;4.72;;
61471;SDS011;47337;54.068;12.114;2023-07-22T05:42:25;10.50;;;4.90;;
61471;SDS011;47337;54.068;12.114;2023-07-22T05:44:53;6.40;;;4.32;;
61471;SDS011;47337;54.068;12.114;2023-07-22T05:47:19;7.75;;;4.60;;
61471;SDS011;47337;54.068;12.114;2023-07-22T05:49:46;7.25;;;3.90;;
61471;SDS011;47337;54.068;12.114;2023-07-22T05:52:16;9.45;;;5.60;;
61471;SDS011;47337;54.068;12.114;2023-07-22T05:54:42;7.30;;;4.50;;
61471;SDS011;47337;54.068;12.114;2023-07-22T05:57:10;7.13;;;4.45;;
61471;SDS011;47337;54.068;12.114;2023-07-22T05:59:40;7.95;;;5.07;;
61471;SDS011;47337;54.068;12.114;2023-07-22T06:02:08;9.35;;;4.68;;
61471;SDS011;47337;54.068;12.114;2023-07-22T06:04:35;9.40;;;4.57;;
61471;SDS011;47337;54.068;12.114;2023-07-22T06:07:01;8.60;;;4.80;;
61471;SDS011;47337;54.068;12.114;2023-07-22T06:09:29;8.60;;;5.00;;
61471;SDS011;47337;54.068;12.114;2023-07-22T06:11:56;9.23;;;4.63;;
61471;SDS011;47337;54.068;12.114;2023-07-22T06:14:22;10.02;;;5.07;;
61471;SDS011;47337;54.068;12.114;2023-07-22T06:16:47;9.80;;;4.20;;
61471;SDS011;47337;54.068;12.114;2023-07-22T06:19:13;6.57;;;3.92;;
61471;SDS011;47337;54.068;12.114;2023-07-22T06:21:38;6.60;;;4.20;;
61471;SDS011;47337;54.068;12.114;2023-07-22T06:24:04;6.05;;;3.90;;
61471;SDS011;47337;54.068;12.114;2023-07-22T06:26:29;7.28;;;4.07;;
61471;SDS011;47337;54.068;12.114;2023-07-22T06:28:55;8.15;;;3.85;;
61471;SDS011;47337;54.068;12.114;2023-07-22T06:31:20;9.43;;;3.92;;
61471;SDS011;47337;54.068;12.114;2023-07-22T06:33:46;6.43;;;4.07;;
61471;SDS011;47337;54.068;12.114;2023-07-22T06:36:14;4.50;;;3.58;;
61471;SDS011;47337;54.068;12.114;2023-07-22T06:38:43;7.53;;;3.60;;
61471;SDS011;47337;54.068;12.114;2023-07-22T06:41:09;7.80;;;4.32;;
61471;SDS011;47337;54.068;12.114;2023-07-22T06:43:34;5.72;;;3.60;;
61471;SDS011;47337;54.068;12.114;2023-07-22T06:46:00;7.32;;;3.38;;
61471;SDS011;47337;54.068;12.114;2023-07-22T06:48:25;6.85;;;3.35;;
61471;SDS011;47337;54.068;12.114;2023-07-22T06:50:50;5.45;;;3.20;;
61471;SDS011;47337;54.068;12.114;2023-07-22T06:53:19;6.07;;;3.20;;
61471;SDS011;47337;54.068;12.114;2023-07-22T06:55:51;5.97;;;3.80;;
61471;SDS011;47337;54.068;12.114;2023-07-22T06:58:17;5.35;;;3.45;;
61471;SDS011;47337;54.068;12.114;2023-07-22T07:00:43;8.38;;;3.40;;
61471;SDS011;47337;54.068;12.114;2023-07-22T07:03:12;7.40;;;3.28;;
61471;SDS011;47337;54.068;12.114;2023-07-22T07:05:37;5.47;;;3.70;;
61471;SDS011;47337;54.068;12.114;2023-07-22T07:08:06;5.40;;;3.80;;
61471;SDS011;47337;54.068;12.114;2023-07-22T07:10:35;6.80;;;2.88;;
61471;SDS011;47337;54.068;12.114;2023-07-22T07:13:02;4.65;;;3.65;;
61471;SDS011;47337;54.068;12.114;2023-07-22T07:15:27;8.57;;;3.55;;
61471;SDS011;47337;54.068;12.114;2023-07-22T07:17:52;4.28;;;2.83;;
61471;SDS011;47337;54.068;12.114;2023-07-22T07:20:18;5.13;;;3.17;;
61471;SDS011;47337;54.068;12.114;2023-07-22T07:22:43;5.75;;;2.95;;
61471;SDS011;47337;54.068;12.114;2023-07-22T07:25:09;7.80;;;2.85;;
61471;SDS011;47337;54.068;12.114;2023-07-22T07:27:36;3.60;;;2.65;;
61471;SDS011;47337;54.068;12.114;2023-07-22T07:30:03;5.93;;;2.80;;
61471;SDS011;47337;54.068;12.114;2023-07-22T07:32:30;4.80;;;2.75;;
61471;SDS011;47337;54.068;12.114;2023-07-22T07:34:55;3.17;;;2.50;;
61471;SDS011;47337;54.068;12.114;2023-07-22T07:37:23;4.68;;;2.40;;
61471;SDS011;47337;54.068;12.114;2023-07-22T07:39:49;2.88;;;2.00;;
61471;SDS011;47337;54.068;12.114;2023-07-22T07:42:16;3.30;;;1.70;;
61471;SDS011;47337;54.068;12.114;2023-07-22T07:44:44;5.32;;;2.58;;
61471;SDS011;47337;54.068;12.114;2023-07-22T07:47:11;5.57;;;2.70;;
61471;SDS011;47337;54.068;12.114;2023-07-22T07:49:38;3.67;;;2.30;;
61471;SDS011;47337;54.068;12.114;2023-07-22T07:52:04;4.25;;;2.80;;
61471;SDS011;47337;54.068;12.114;2023-07-22T07:54:32;5.57;;;2.60;;
61471;SDS011;47337;54.068;12.114;2023-07-22T07:57:00;4.22;;;2.55;;
61471;SDS011;47337;54.068;12.114;2023-07-22T07:59:27;3.63;;;2.10;;
61471;SDS011;47337;54.068;12.114;2023-07-22T08:01:55;3.60;;;2.08;;
61471;SDS011;47337;54.068;12.114;2023-07-22T08:04:23;2.85;;;1.60;;
61471;SDS011;47337;54.068;12.114;2023-07-22T08:06:49;3.15;;;1.73;;
61471;SDS011;47337;54.068;12.114;2023-07-22T08:09:17;2.35;;;1.58;;
61471;SDS011;47337;54.068;12.114;2023-07-22T08:11:44;6.35;;;1.67;;
61471;SDS011;47337;54.068;12.114;2023-07-22T08:14:12;1.92;;;1.05;;
61471;SDS011;47337;54.068;12.114;2023-07-22T08:16:39;2.80;;;1.25;;
61471;SDS011;47337;54.068;12.114;2023-07-22T08:19:07;2.30;;;1.10;;
61471;SDS011;47337;54.068;12.114;2023-07-22T08:21:35;3.20;;;1.27;;
61471;SDS011;47337;54.068;12.114;2023-07-22T08:24:00;2.78;;;1.25;;
61471;SDS011;47337;54.068;12.114;2023-07-22T08:26:29;2.45;;;1.17;;
61471;SDS011;47337;54.068;12.114;2023-07-22T08:28:55;1.55;;;1.10;;
61471;SDS011;47337;54.068;12.114;2023-07-22T08:31:20;3.40;;;1.10;;
61471;SDS011;47337;54.068;12.114;2023-07-22T08:33:46;2.10;;;1.00;;
61471;SDS011;47337;54.068;12.114;2023-07-22T08:36:16;1.73;;;1.08;;
61471;SDS011;47337;54.068;12.114;2023-07-22T08:38:43;1.33;;;1.05;;
61471;SDS011;47337;54.068;12.114;2023-07-22T08:41:09;1.88;;;1.20;;
61471;SDS011;47337;54.068;12.114;2023-07-22T08:43:39;2.63;;;0.98;;
61471;SDS011;47337;54.068;12.114;2023-07-22T08:46:06;2.30;;;0.93;;
61471;SDS011;47337;54.068;12.114;2023-07-22T08:48:32;1.55;;;1.00;;
61471;SDS011;47337;54.068;12.114;2023-07-22T08:51:06;2.35;;;0.80;;
61471;SDS011;47337;54.068;12.114;2023-07-22T08:53:35;1.00;;;0.73;;
61471;SDS011;47337;54.068;12.114;2023-07-22T08:56:00;1.42;;;0.90;;
61471;SDS011;47337;54.068;12.114;2023-07-22T08:58:26;1.67;;;0.77;;
61471;SDS011;47337;54.068;12.114;2023-07-22T09:00:52;1.73;;;0.80;;
61471;SDS011;47337;54.068;12.114;2023-07-22T09:03:18;1.80;;;0.90;;
61471;SDS011;47337;54.068;12.114;2023-07-22T09:05:44;1.20;;;0.80;;
61471;SDS011;47337;54.068;12.114;2023-07-22T09:08:13;2.80;;;0.82;;
61471;SDS011;47337;54.068;12.114;2023-07-22T09:10:39;3.83;;;1.02;;
61471;SDS011;47337;54.068;12.114;2023-07-22T09:13:07;2.90;;;1.33;;
61471;SDS011;47337;54.068;12.114;2023-07-22T09:15:34;2.45;;;0.88;;
61471;SDS011;47337;54.068;12.114;2023-07-22T09:18:01;1.90;;;0.80;;
61471;SDS011;47337;54.068;12.114;2023-07-22T09:20:28;1.38;;;0.80;;
61471;SDS011;47337;54.068;12.114;2023-07-22T09:22:54;1.85;;;0.90;;
61471;SDS011;47337;54.068;12.114;2023-07-22T09:25:26;3.38;;;0.80;;
61471;SDS011;47337;54.068;12.114;2023-07-22T09:27:54;1.45;;;0.85;;
61471;SDS011;47337;54.068;12.114;2023-07-22T09:30:21;1.13;;;0.68;;
61471;SDS011;47337;54.068;12.114;2023-07-22T09:32:50;1.38;;;0.80;;
61471;SDS011;47337;54.068;12.114;2023-07-22T09:35:17;1.33;;;0.80;;
61471;SDS011;47337;54.068;12.114;2023-07-22T09:37:43;1.25;;;0.88;;
61471;SDS011;47337;54.068;12.114;2023-07-22T09:40:19;2.70;;;0.70;;
61471;SDS011;47337;54.068;12.114;2023-07-22T09:42:46;1.08;;;0.70;;
61471;SDS011;47337;54.068;12.114;2023-07-22T09:45:19;0.90;;;0.70;;
61471;SDS011;47337;54.068;12.114;2023-07-22T09:47:48;1.05;;;0.70;;
61471;SDS011;47337;54.068;12.114;2023-07-22T09:50:18;1.50;;;0.57;;
61471;SDS011;47337;54.068;12.114;2023-07-22T09:52:53;1.45;;;0.60;;
61471;SDS011;47337;54.068;12.114;2023-07-22T09:55:20;0.88;;;0.60;;
61471;SDS011;47337;54.068;12.114;2023-07-22T09:57:50;0.82;;;0.60;;
61471;SDS011;47337;54.068;12.114;2023-07-22T10:00:35;0.70;;;0.60;;
61471;SDS011;47337;54.068;12.114;2023-07-22T10:03:02;2.10;;;0.63;;
61471;SDS011;47337;54.068;12.114;2023-07-22T10:05:30;0.85;;;0.50;;
61471;SDS011;47337;54.068;12.114;2023-07-22T10:07:59;0.52;;;0.52;;
61471;SDS011;47337;54.068;12.114;2023-07-22T10:12:59;0.40;;;0.40;;
61471;SDS011;47337;54.068;12.114;2023-07-22T10:15:25;1.55;;;0.55;;
61471;SDS011;47337;54.068;12.114;2023-07-22T10:17:53;0.82;;;0.52;;
61471;SDS011;47337;54.068;12.114;2023-07-22T10:20:20;0.70;;;0.50;;
61471;SDS011;47337;54.068;12.114;2023-07-22T10:22:47;1.27;;;0.60;;
61471;SDS011;47337;54.068;12.114;2023-07-22T10:25:14;3.53;;;0.90;;
61471;SDS011;47337;54.068;12.114;2023-07-22T10:27:41;3.42;;;0.55;;
61471;SDS011;47337;54.068;12.114;2023-07-22T10:30:11;0.90;;;0.50;;
61471;SDS011;47337;54.068;12.114;2023-07-22T10:32:45;0.30;;;0.20;;
61471;SDS011;47337;54.068;12.114;2023-07-22T10:35:17;1.45;;;0.40;;
61471;SDS011;47337;54.068;12.114;2023-07-22T10:37:48;0.70;;;0.30;;
61471;SDS011;47337;54.068;12.114;2023-07-22T10:40:27;1.17;;;0.40;;
61471;SDS011;47337;54.068;12.114;2023-07-22T10:42:59;1.10;;;0.60;;
61471;SDS011;47337;54.068;12.114;2023-07-22T10:50:41;1.48;;;0.82;;
61471;SDS011;47337;54.068;12.114;2023-07-22T11:06:59;1.85;;;0.65;;
61471;SDS011;47337;54.068;12.114;2023-07-22T11:12:00;1.90;;;0.60;;
61471;SDS011;47337;54.068;12.114;2023-07-22T11:14:45;0.43;;;0.43;;
61471;SDS011;47337;54.068;12.114;2023-07-22T11:17:30;1.52;;;0.50;;
61471;SDS011;47337;54.068;12.114;2023-07-22T11:19:56;2.03;;;0.75;;
61471;SDS011;47337;54.068;12.114;2023-07-22T11:22:22;1.40;;;0.80;;
61471;SDS011;47337;54.068;12.114;2023-07-22T11:24:50;0.82;;;0.47;;
61471;SDS011;47337;54.068;12.114;2023-07-22T11:27:18;2.35;;;0.60;;
61471;SDS011;47337;54.068;12.114;2023-07-22T11:29:50;2.22;;;0.75;;
61471;SDS011;47337;54.068;12.114;2023-07-22T11:32:16;2.17;;;0.70;;
61471;SDS011;47337;54.068;12.114;2023-07-22T11:34:42;1.02;;;0.45;;
61471;SDS011;47337;54.068;12.114;2023-07-22T11:37:11;3.28;;;1.00;;
61471;SDS011;47337;54.068;12.114;2023-07-22T11:39:36;0.77;;;0.68;;
61471;SDS011;47337;54.068;12.114;2023-07-22T11:42:03;0.68;;;0.52;;
61471;SDS011;47337;54.068;12.114;2023-07-22T11:44:32;1.60;;;0.77;;
61471;SDS011;47337;54.068;12.114;2023-07-22T11:54:41;1.52;;;0.80;;
61471;SDS011;47337;54.068;12.114;2023-07-22T11:57:10;1.45;;;0.50;;
61471;SDS011;47337;54.068;12.114;2023-07-22T11:59:40;1.10;;;0.70;;
61471;SDS011;47337;54.068;12.114;2023-07-22T12:02:18;0.95;;;0.63;;
61471;SDS011;47337;54.068;12.114;2023-07-22T12:04:53;0.73;;;0.70;;
61471;SDS011;47337;54.068;12.114;2023-07-22T12:07:21;1.85;;;1.05;;
61471;SDS011;47337;54.068;12.114;2023-07-22T12:09:51;1.05;;;0.40;;
61471;SDS011;47337;54.068;12.114;2023-07-22T12:12:19;1.08;;;0.60;;
61471;SDS011;47337;54.068;12.114;2023-07-22T12:14:45;0.90;;;0.35;;
61471;SDS011;47337;54.068;12.114;2023-07-22T12:17:10;1.17;;;0.50;;
61471;SDS011;47337;54.068;12.114;2023-07-22T12:19:36;1.30;;;0.60;;
61471;SDS011;47337;54.068;12.114;2023-07-22T12:22:01;1.00;;;0.50;;
61471;SDS011;47337;54.068;12.114;2023-07-22T12:24:29;3.00;;;0.70;;
61471;SDS011;47337;54.068;12.114;2023-07-22T12:26:55;1.20;;;0.50;;
61471;SDS011;47337;54.068;12.114;2023-07-22T12:29:20;1.30;;;0.60;;
61471;SDS011;47337;54.068;12.114;2023-07-22T12:31:47;0.60;;;0.50;;
61471;SDS011;47337;54.068;12.114;2023-07-22T12:34:12;0.85;;;0.47;;
61471;SDS011;47337;54.068;12.114;2023-07-22T12:36:38;0.68;;;0.30;;
61471;SDS011;47337;54.068;12.114;2023-07-22T12:39:03;3.00;;;0.47;;
61471;SDS011;47337;54.068;12.114;2023-07-22T12:41:30;0.50;;;0.30;;
61471;SDS011;47337;54.068;12.114;2023-07-22T12:43:55;0.70;;;0.40;;
61471;SDS011;47337;54.068;12.114;2023-07-22T12:46:20;3.20;;;0.77;;
61471;SDS011;47337;54.068;12.114;2023-07-22T12:48:46;1.02;;;0.60;;
61471;SDS011;47337;54.068;12.114;2023-07-22T12:51:11;1.48;;;0.47;;
61471;SDS011;47337;54.068;12.114;2023-07-22T12:53:38;1.10;;;0.32;;
61471;SDS011;47337;54.068;12.114;2023-07-22T12:56:03;0.93;;;0.60;;
61471;SDS011;47337;54.068;12.114;2023-07-22T12:58:30;0.65;;;0.50;;
61471;SDS011;47337;54.068;12.114;2023-07-22T13:00:56;0.50;;;0.50;;
61471;SDS011;47337;54.068;12.114;2023-07-22T13:03:21;1.52;;;0.40;;
61471;SDS011;47337;54.068;12.114;2023-07-22T13:05:49;0.75;;;0.40;;
61471;SDS011;47337;54.068;12.114;2023-07-22T13:08:17;0.93;;;0.60;;
61471;SDS011;47337;54.068;12.114;2023-07-22T13:10:42;0.45;;;0.43;;
61471;SDS011;47337;54.068;12.114;2023-07-22T13:13:10;1.17;;;0.45;;
61471;SDS011;47337;54.068;12.114;2023-07-22T13:15:35;1.67;;;0.50;;
61471;SDS011;47337;54.068;12.114;2023-07-22T13:18:01;0.43;;;0.43;;
61471;SDS011;47337;54.068;12.114;2023-07-22T13:20:29;1.10;;;0.40;;
61471;SDS011;47337;54.068;12.114;2023-07-22T13:22:55;2.15;;;0.63;;
61471;SDS011;47337;54.068;12.114;2023-07-22T13:25:25;1.45;;;0.50;;
61471;SDS011;47337;54.068;12.114;2023-07-22T13:27:51;1.95;;;0.57;;
61471;SDS011;47337;54.068;12.114;2023-07-22T13:30:16;1.25;;;0.55;;
61471;SDS011;47337;54.068;12.114;2023-07-22T13:32:42;0.95;;;0.60;;
61471;SDS011;47337;54.068;12.114;2023-07-22T13:35:07;1.45;;;0.70;;
61471;SDS011;47337;54.068;12.114;2023-07-22T13:37:34;1.00;;;0.70;;
61471;SDS011;47337;54.068;12.114;2023-07-22T13:40:01;2.35;;;0.65;;
61471;SDS011;47337;54.068;12.114;2023-07-22T13:42:26;2.13;;;0.50;;
61471;SDS011;47337;54.068;12.114;2023-07-22T13:44:51;1.90;;;0.77;;
61471;SDS011;47337;54.068;12.114;2023-07-22T13:47:17;1.33;;;0.70;;
61471;SDS011;47337;54.068;12.114;2023-07-22T13:49:42;0.70;;;0.60;;
61471;SDS011;47337;54.068;12.114;2023-07-22T13:52:11;0.75;;;0.60;;
61471;SDS011;47337;54.068;12.114;2023-07-22T13:54:39;1.20;;;0.98;;
61471;SDS011;47337;54.068;12.114;2023-07-22T13:57:05;1.77;;;0.77;;
61471;SDS011;47337;54.068;12.114;2023-07-22T13:59:30;0.80;;;0.60;;
61471;SDS011;47337;54.068;12.114;2023-07-22T14:01:59;1.55;;;0.70;;
61471;SDS011;47337;54.068;12.114;2023-07-22T14:04:25;1.77;;;0.80;;
61471;SDS011;47337;54.068;12.114;2023-07-22T14:06:55;1.00;;;0.63;;
61471;SDS011;47337;54.068;12.114;2023-07-22T14:09:22;1.27;;;0.75;;
61471;SDS011;47337;54.068;12.114;2023-07-22T14:11:48;3.38;;;0.70;;
61471;SDS011;47337;54.068;12.114;2023-07-22T14:14:13;0.90;;;0.80;;
61471;SDS011;47337;54.068;12.114;2023-07-22T14:16:38;1.45;;;0.82;;
61471;SDS011;47337;54.068;12.114;2023-07-22T14:19:04;0.85;;;0.80;;
61471;SDS011;47337;54.068;12.114;2023-07-22T14:21:29;1.10;;;0.68;;
61471;SDS011;47337;54.068;12.114;2023-07-22T14:23:54;0.65;;;0.65;;
61471;SDS011;47337;54.068;12.114;2023-07-22T14:26:22;2.63;;;0.70;;
61471;SDS011;47337;54.068;12.114;2023-07-22T14:28:47;1.58;;;0.80;;
61471;SDS011;47337;54.068;12.114;2023-07-22T14:31:16;1.92;;;0.80;;
61471;SDS011;47337;54.068;12.114;2023-07-22T14:33:44;1.48;;;0.70;;
61471;SDS011;47337;54.068;12.114;2023-07-22T14:36:09;3.67;;;0.90;;
61471;SDS011;47337;54.068;12.114;2023-07-22T14:38:39;1.98;;;0.90;;
61471;SDS011;47337;54.068;12.114;2023-07-22T14:41:05;2.35;;;0.82;;
61471;SDS011;47337;54.068;12.114;2023-07-22T14:43:33;3.25;;;1.10;;
61471;SDS011;47337;54.068;12.114;2023-07-22T14:45:58;2.22;;;1.08;;
61471;SDS011;47337;54.068;12.114;2023-07-22T14:48:23;2.83;;;1.20;;
61471;SDS011;47337;54.068;12.114;2023-07-22T14:50:49;1.50;;;1.27;;
61471;SDS011;47337;54.068;12.114;2023-07-22T14:53:17;1.95;;;1.33;;
61471;SDS011;47337;54.068;12.114;2023-07-22T14:55:42;2.25;;;1.20;;
61471;SDS011;47337;54.068;12.114;2023-07-22T14:58:10;3.00;;;1.10;;
61471;SDS011;47337;54.068;12.114;2023-07-22T15:00:38;1.27;;;1.05;;
61471;SDS011;47337;54.068;12.114;2023-07-22T15:03:03;3.08;;;1.02;;